Time;durP1;ratioP1;P1;durP2;ratioP2;P2;SDS_P1;SDS_P2;PMS_P1;PMS_P2;Temp;Humidity;BMP_temperature;BMP_pressure;BME280_temperature;BME280_humidity;BME280_pressure;Samples;Min_cycle;Max_cycle;Signal;HPM_P1;HPM_P2
2023/10/24 00:01:16;;;;;;;20.65;11.90;;;;;;;;;;5069194;28;20035;-62
2023/10/24 00:03:42;;;;;;;19.33;12.38;;;;;;;;;;5072151;28;20141;-62
2023/10/24 00:06:08;;;;;;;16.17;11.65;;;;;;;;;;5072743;28;20040;-61
2023/10/24 00:08:34;;;;;;;24.20;12.93;;;;;;;;;;5072493;28;20044;-62
2023/10/24 00:11:02;;;;;;;22.08;12.57;;;;;;;;;;5074949;28;20488;-62
2023/10/24 00:13:28;;;;;;;18.20;11.75;;;;;;;;;;5072437;28;20109;-62
2023/10/24 00:15:54;;;;;;;19.27;12.15;;;;;;;;;;5073559;28;20071;-62
2023/10/24 00:18:20;;;;;;;20.58;13.05;;;;;;;;;;5072320;28;20048;-62
2023/10/24 00:20:47;;;;;;;20.73;12.18;;;;;;;;;;5072427;28;20040;-62
2023/10/24 00:23:13;;;;;;;24.08;12.80;;;;;;;;;;5073261;28;20047;-62
2023/10/24 00:25:39;;;;;;;20.63;12.13;;;;;;;;;;5072524;28;20040;-62
2023/10/24 00:28:05;;;;;;;18.33;12.35;;;;;;;;;;5074410;28;20107;-62
2023/10/24 00:30:31;;;;;;;23.40;13.00;;;;;;;;;;5071599;28;20060;-62
2023/10/24 00:32:57;;;;;;;21.58;12.00;;;;;;;;;;5072916;28;20048;-62
2023/10/24 00:35:24;;;;;;;18.05;12.10;;;;;;;;;;5073546;28;20496;-62
2023/10/24 00:37:50;;;;;;;20.73;12.70;;;;;;;;;;5073573;28;20085;-62
2023/10/24 00:40:16;;;;;;;22.92;13.00;;;;;;;;;;5071236;28;20085;-62
2023/10/24 00:42:42;;;;;;;19.98;12.57;;;;;;;;;;5068695;28;20048;-62
2023/10/24 00:45:09;;;;;;;24.02;13.02;;;;;;;;;;5070881;28;20049;-62
2023/10/24 00:47:35;;;;;;;21.13;13.57;;;;;;;;;;5073272;28;20381;-62
2023/10/24 00:50:01;;;;;;;22.95;13.40;;;;;;;;;;5071855;28;20071;-62
2023/10/24 00:52:28;;;;;;;21.17;12.85;;;;;;;;;;5072412;28;20172;-62
2023/10/24 00:54:54;;;;;;;21.23;12.20;;;;;;;;;;5071813;28;20048;-62
2023/10/24 00:57:21;;;;;;;30.20;12.93;;;;;;;;;;5074309;28;20040;-62
2023/10/24 00:59:47;;;;;;;19.73;12.70;;;;;;;;;;5071668;28;20489;-62
2023/10/24 01:02:14;;;;;;;24.05;13.20;;;;;;;;;;5070059;28;20036;-62
2023/10/24 01:04:40;;;;;;;22.25;13.13;;;;;;;;;;5071118;28;20063;-62
2023/10/24 01:07:06;;;;;;;22.45;13.13;;;;;;;;;;5072451;28;20052;-62
2023/10/24 01:09:32;;;;;;;25.38;13.63;;;;;;;;;;5070312;28;20088;-62
2023/10/24 01:11:59;;;;;;;24.00;14.27;;;;;;;;;;5069864;28;20047;-62
2023/10/24 01:14:25;;;;;;;25.48;15.48;;;;;;;;;;5072026;28;20044;-61
2023/10/24 01:16:51;;;;;;;24.25;13.77;;;;;;;;;;5070360;28;20482;-62
2023/10/24 01:19:18;;;;;;;25.30;14.43;;;;;;;;;;5071749;28;21414;-62
2023/10/24 01:21:45;;;;;;;22.00;13.73;;;;;;;;;;5070368;28;20458;-62
2023/10/24 01:24:14;;;;;;;21.55;14.13;;;;;;;;;;5074717;28;20040;-62
2023/10/24 01:26:42;;;;;;;22.95;14.82;;;;;;;;;;5072281;28;20052;-62
2023/10/24 01:29:08;;;;;;;21.85;13.80;;;;;;;;;;5069338;28;20182;-62
2023/10/24 01:31:35;;;;;;;25.58;14.20;;;;;;;;;;5072156;28;20052;-62
2023/10/24 01:34:01;;;;;;;25.92;14.55;;;;;;;;;;5072259;28;20086;-62
2023/10/24 01:36:27;;;;;;;26.58;14.45;;;;;;;;;;5071924;28;22023;-62
2023/10/24 01:38:53;;;;;;;23.52;14.82;;;;;;;;;;5069957;28;20094;-62
2023/10/24 01:41:20;;;;;;;27.45;15.07;;;;;;;;;;5072170;28;20050;-62
2023/10/24 01:43:46;;;;;;;27.45;15.70;;;;;;;;;;5074189;28;20141;-62
2023/10/24 01:46:12;;;;;;;30.50;15.20;;;;;;;;;;5070458;28;20139;-62
2023/10/24 01:48:38;;;;;;;21.65;14.60;;;;;;;;;;5071743;28;20047;-62
2023/10/24 01:51:04;;;;;;;30.13;15.88;;;;;;;;;;5073333;28;20033;-62
2023/10/24 01:53:30;;;;;;;31.33;17.23;;;;;;;;;;5069864;28;20779;-62
2023/10/24 01:55:57;;;;;;;29.90;16.30;;;;;;;;;;5071196;28;20193;-62
2023/10/24 01:58:23;;;;;;;27.50;15.90;;;;;;;;;;5060238;28;20059;-62
2023/10/24 02:00:49;;;;;;;30.75;16.42;;;;;;;;;;5080725;28;20507;-62
2023/10/24 02:03:15;;;;;;;30.55;15.10;;;;;;;;;;5079757;28;20123;-62
2023/10/24 02:05:41;;;;;;;28.92;16.90;;;;;;;;;;5076310;28;20037;-62
2023/10/24 02:08:07;;;;;;;27.75;16.65;;;;;;;;;;5071592;28;20056;-62
2023/10/24 02:10:34;;;;;;;27.45;15.65;;;;;;;;;;5074375;28;20067;-62
2023/10/24 02:13:00;;;;;;;28.42;17.10;;;;;;;;;;5081210;28;20119;-62
2023/10/24 02:15:26;;;;;;;33.55;17.10;;;;;;;;;;5070357;28;20051;-62
2023/10/24 02:17:52;;;;;;;32.50;16.88;;;;;;;;;;5078159;28;20040;-62
2023/10/24 02:20:18;;;;;;;29.25;16.65;;;;;;;;;;5070874;28;20036;-62
2023/10/24 02:22:48;;;;;;;29.15;17.05;;;;;;;;;;5079038;28;20040;-62
2023/10/24 02:25:15;;;;;;;30.75;18.08;;;;;;;;;;5071830;28;20098;-62
2023/10/24 02:27:41;;;;;;;29.00;17.45;;;;;;;;;;5068730;28;20177;-62
2023/10/24 02:30:07;;;;;;;32.30;18.48;;;;;;;;;;5069834;28;20139;-62
2023/10/24 02:32:34;;;;;;;26.45;16.95;;;;;;;;;;5074589;28;20045;-62
2023/10/24 02:35:00;;;;;;;30.27;17.50;;;;;;;;;;5069799;28;20138;-62
2023/10/24 02:37:26;;;;;;;32.35;19.23;;;;;;;;;;5073164;28;20047;-62
2023/10/24 02:39:52;;;;;;;29.77;17.20;;;;;;;;;;5069552;28;20048;-62
2023/10/24 02:42:18;;;;;;;30.92;18.52;;;;;;;;;;5067745;28;20040;-62
2023/10/24 02:44:49;;;;;;;31.00;17.60;;;;;;;;;;5076759;28;20519;-62
2023/10/24 02:47:15;;;;;;;27.38;16.92;;;;;;;;;;5080523;28;20052;-62
2023/10/24 02:49:41;;;;;;;27.95;16.77;;;;;;;;;;5069458;28;20056;-62
2023/10/24 02:52:08;;;;;;;27.40;15.93;;;;;;;;;;5071976;28;20112;-62
2023/10/24 02:54:34;;;;;;;30.98;17.10;;;;;;;;;;5067987;28;20041;-62
2023/10/24 02:57:00;;;;;;;26.38;16.38;;;;;;;;;;5068858;28;20144;-62
2023/10/24 02:59:26;;;;;;;27.45;15.68;;;;;;;;;;5071393;28;20056;-62
2023/10/24 03:01:54;;;;;;;30.52;16.45;;;;;;;;;;5071253;28;20040;-62
2023/10/24 03:04:20;;;;;;;25.17;15.60;;;;;;;;;;5070717;28;20028;-61
2023/10/24 03:06:46;;;;;;;27.35;16.10;;;;;;;;;;5068819;28;20036;-62
2023/10/24 03:09:12;;;;;;;28.55;16.73;;;;;;;;;;5069303;28;20110;-62
2023/10/24 03:11:38;;;;;;;25.85;16.23;;;;;;;;;;5069193;28;20135;-62
2023/10/24 03:14:04;;;;;;;26.52;15.23;;;;;;;;;;5072249;28;20524;-62
2023/10/24 03:16:32;;;;;;;24.85;15.23;;;;;;;;;;5070820;28;20126;-62
2023/10/24 03:18:59;;;;;;;24.35;15.90;;;;;;;;;;5069141;28;20043;-62
2023/10/24 03:21:26;;;;;;;26.10;15.30;;;;;;;;;;5070822;28;20036;-62
2023/10/24 03:23:52;;;;;;;23.98;14.93;;;;;;;;;;5068376;28;20504;-62
2023/10/24 03:26:19;;;;;;;23.77;15.45;;;;;;;;;;5069981;28;20036;-62
2023/10/24 03:28:46;;;;;;;25.88;15.93;;;;;;;;;;5068833;28;20125;-62
2023/10/24 03:31:12;;;;;;;27.20;14.75;;;;;;;;;;5071096;28;20191;-62
2023/10/24 03:33:38;;;;;;;25.48;14.43;;;;;;;;;;5069183;28;20505;-62
2023/10/24 03:36:04;;;;;;;21.92;14.18;;;;;;;;;;5068731;28;20141;-62
2023/10/24 03:38:31;;;;;;;25.33;14.70;;;;;;;;;;5068112;28;20068;-62
2023/10/24 03:40:57;;;;;;;24.83;14.45;;;;;;;;;;5065176;28;20043;-62
2023/10/24 03:43:24;;;;;;;23.10;14.40;;;;;;;;;;5061822;28;20041;-62
2023/10/24 03:45:50;;;;;;;20.95;13.43;;;;;;;;;;5054280;28;20049;-62
2023/10/24 03:48:16;;;;;;;22.70;13.48;;;;;;;;;;5067273;28;20045;-62
2023/10/24 03:50:42;;;;;;;23.27;14.88;;;;;;;;;;5070228;28;20061;-62
2023/10/24 03:53:08;;;;;;;22.25;13.63;;;;;;;;;;5067045;28;20123;-62
2023/10/24 03:55:35;;;;;;;21.35;13.05;;;;;;;;;;5068613;28;20040;-62
2023/10/24 03:58:01;;;;;;;21.75;13.63;;;;;;;;;;5070146;28;20043;-62
2023/10/24 04:00:27;;;;;;;21.83;13.90;;;;;;;;;;5069528;28;20498;-62
2023/10/24 04:02:54;;;;;;;24.13;14.02;;;;;;;;;;5065597;28;20045;-62
2023/10/24 04:05:20;;;;;;;24.95;15.15;;;;;;;;;;5066119;28;20062;-62
2023/10/24 04:07:47;;;;;;;26.05;13.10;;;;;;;;;;5069605;28;20092;-62
2023/10/24 04:10:14;;;;;;;23.13;14.00;;;;;;;;;;5067938;28;20387;-62
2023/10/24 04:12:40;;;;;;;21.52;14.45;;;;;;;;;;5070138;28;20049;-62
2023/10/24 04:15:07;;;;;;;26.25;14.10;;;;;;;;;;5067967;28;20079;-61
2023/10/24 04:17:33;;;;;;;27.15;14.93;;;;;;;;;;5069183;28;20044;-62
2023/10/24 04:20:00;;;;;;;23.63;13.82;;;;;;;;;;5068072;28;20059;-62
2023/10/24 04:22:27;;;;;;;24.30;14.60;;;;;;;;;;5067784;28;20048;-62
2023/10/24 04:24:53;;;;;;;26.00;14.48;;;;;;;;;;5067674;28;20049;-62
2023/10/24 04:27:20;;;;;;;27.08;15.85;;;;;;;;;;5068622;28;20040;-62
2023/10/24 04:29:46;;;;;;;28.50;15.45;;;;;;;;;;5068681;28;20064;-62
2023/10/24 04:32:13;;;;;;;29.48;16.15;;;;;;;;;;5067817;28;20040;-62
2023/10/24 04:34:39;;;;;;;26.95;16.33;;;;;;;;;;5068829;28;20048;-61
2023/10/24 04:37:05;;;;;;;28.92;15.45;;;;;;;;;;5069506;28;20119;-62
2023/10/24 04:39:32;;;;;;;28.92;16.02;;;;;;;;;;5072477;28;20088;-62
2023/10/24 04:41:58;;;;;;;29.60;16.48;;;;;;;;;;5072254;28;20080;-62
2023/10/24 04:44:24;;;;;;;31.02;18.05;;;;;;;;;;5072639;28;20407;-62
2023/10/24 04:46:51;;;;;;;29.08;16.23;;;;;;;;;;5073243;28;20048;-62
2023/10/24 04:49:17;;;;;;;30.73;16.63;;;;;;;;;;5071174;28;20085;-62
2023/10/24 04:51:44;;;;;;;32.60;16.77;;;;;;;;;;5072045;28;20055;-61
2023/10/24 04:54:10;;;;;;;33.33;17.02;;;;;;;;;;5071149;28;20074;-62
2023/10/24 04:56:36;;;;;;;32.35;17.90;;;;;;;;;;5072237;28;20145;-62
2023/10/24 04:59:02;;;;;;;32.80;16.92;;;;;;;;;;5072379;28;20408;-62
2023/10/24 05:01:33;;;;;;;34.75;17.45;;;;;;;;;;5072019;28;20076;-62
2023/10/24 05:04:00;;;;;;;36.80;17.65;;;;;;;;;;5070778;28;20102;-62
2023/10/24 05:06:26;;;;;;;34.83;19.05;;;;;;;;;;5071580;28;20040;-62
2023/10/24 05:08:52;;;;;;;38.45;17.70;;;;;;;;;;5070752;28;20049;-62
2023/10/24 05:11:18;;;;;;;40.67;19.77;;;;;;;;;;5072038;28;20056;-62
2023/10/24 05:13:44;;;;;;;34.25;19.58;;;;;;;;;;5072703;28;20032;-62
2023/10/24 05:16:10;;;;;;;42.70;20.20;;;;;;;;;;5069514;28;20064;-61
2023/10/24 05:18:37;;;;;;;42.28;20.30;;;;;;;;;;5070209;28;20044;-61
2023/10/24 05:21:03;;;;;;;43.38;20.55;;;;;;;;;;5069106;28;20067;-62
2023/10/24 05:23:29;;;;;;;49.10;24.40;;;;;;;;;;5070157;28;20068;-62
2023/10/24 05:25:56;;;;;;;49.85;25.73;;;;;;;;;;5067089;28;20033;-61
2023/10/24 05:28:22;;;;;;;45.40;25.65;;;;;;;;;;5069903;28;20141;-61
2023/10/24 05:30:48;;;;;;;45.38;26.42;;;;;;;;;;5071911;28;20067;-62
2023/10/24 05:33:15;;;;;;;52.47;27.55;;;;;;;;;;5070940;28;20190;-62
2023/10/24 05:35:50;;;;;;;61.35;29.17;;;;;;;;;;5072127;28;20040;-62
2023/10/24 05:38:16;;;;;;;68.78;32.00;;;;;;;;;;5071162;28;20047;-62
2023/10/24 05:40:45;;;;;;;54.80;30.73;;;;;;;;;;5071956;28;20041;-62
2023/10/24 05:43:11;;;;;;;63.35;30.83;;;;;;;;;;5069860;28;20052;-62
2023/10/24 05:45:38;;;;;;;59.60;31.00;;;;;;;;;;5052606;28;20056;-62
2023/10/24 05:48:04;;;;;;;64.50;31.65;;;;;;;;;;5069422;28;20117;-62
2023/10/24 05:50:30;;;;;;;62.53;31.38;;;;;;;;;;5071291;28;20483;-62
2023/10/24 05:52:56;;;;;;;64.75;32.83;;;;;;;;;;5070562;28;20041;-62
2023/10/24 05:55:23;;;;;;;61.85;31.48;;;;;;;;;;5070300;28;20486;-62
2023/10/24 05:57:49;;;;;;;64.85;33.03;;;;;;;;;;5070071;28;20056;-62
2023/10/24 06:00:15;;;;;;;59.90;30.05;;;;;;;;;;5063816;28;20051;-62
2023/10/24 06:02:41;;;;;;;57.88;31.15;;;;;;;;;;5066072;28;20052;-62
2023/10/24 06:05:08;;;;;;;69.68;32.10;;;;;;;;;;5067609;28;20087;-62
2023/10/24 06:07:34;;;;;;;69.38;32.70;;;;;;;;;;5069750;28;20055;-62
2023/10/24 06:10:00;;;;;;;66.72;32.80;;;;;;;;;;5071452;28;20044;-62
2023/10/24 06:12:28;;;;;;;73.13;32.13;;;;;;;;;;5069000;28;20036;-61
2023/10/24 06:14:55;;;;;;;74.80;32.10;;;;;;;;;;5068995;28;20052;-62
2023/10/24 06:17:21;;;;;;;64.35;31.80;;;;;;;;;;5066865;28;20045;-61
2023/10/24 06:19:49;;;;;;;57.72;30.70;;;;;;;;;;5067532;28;20045;-62
2023/10/24 06:22:16;;;;;;;64.63;31.20;;;;;;;;;;5063480;28;20438;-62
2023/10/24 06:24:42;;;;;;;64.70;32.00;;;;;;;;;;5063596;28;20041;-61
2023/10/24 06:27:13;;;;;;;63.78;32.47;;;;;;;;;;5065654;28;20485;-62
2023/10/24 06:29:40;;;;;;;56.95;31.13;;;;;;;;;;5062035;28;20094;-62
2023/10/24 06:32:06;;;;;;;79.00;33.33;;;;;;;;;;5062929;28;20036;-62
2023/10/24 06:34:33;;;;;;;57.67;31.88;;;;;;;;;;5062337;28;20074;-61
2023/10/24 06:37:00;;;;;;;57.80;30.65;;;;;;;;;;5061611;28;20127;-60
2023/10/24 06:39:26;;;;;;;53.80;30.33;;;;;;;;;;5059851;28;20048;-61
2023/10/24 06:41:52;;;;;;;60.72;30.17;;;;;;;;;;5059607;28;20045;-61
2023/10/24 06:44:18;;;;;;;56.42;30.45;;;;;;;;;;5059504;28;20108;-61
2023/10/24 06:46:44;;;;;;;58.72;29.27;;;;;;;;;;5060856;28;20040;-61
2023/10/24 06:49:10;;;;;;;61.70;29.60;;;;;;;;;;5058341;28;20561;-61
2023/10/24 06:51:37;;;;;;;58.75;28.77;;;;;;;;;;5059918;28;20072;-61
2023/10/24 06:54:03;;;;;;;59.70;28.55;;;;;;;;;;5061505;28;20443;-61
2023/10/24 06:56:29;;;;;;;56.30;28.80;;;;;;;;;;5057773;28;20052;-61
2023/10/24 06:58:55;;;;;;;52.85;28.98;;;;;;;;;;5058878;28;20407;-61
2023/10/24 07:01:21;;;;;;;42.88;25.00;;;;;;;;;;5060228;28;20051;-61
2023/10/24 07:03:48;;;;;;;45.45;24.73;;;;;;;;;;5057133;28;20048;-61
2023/10/24 07:06:14;;;;;;;50.97;25.20;;;;;;;;;;5058864;28;20056;-61
2023/10/24 07:08:42;;;;;;;49.95;24.95;;;;;;;;;;5061335;28;20036;-61
2023/10/24 07:11:08;;;;;;;43.47;23.50;;;;;;;;;;5056705;28;20498;-61
2023/10/24 07:13:37;;;;;;;47.65;23.42;;;;;;;;;;5063539;28;20040;-61
2023/10/24 07:16:13;;;;;;;39.35;22.17;;;;;;;;;;5061870;28;20119;-61
2023/10/24 07:18:39;;;;;;;45.72;23.40;;;;;;;;;;5056763;28;20037;-61
2023/10/24 07:21:05;;;;;;;39.47;22.95;;;;;;;;;;5059138;28;20033;-61
2023/10/24 07:23:31;;;;;;;39.25;21.30;;;;;;;;;;5062217;28;20044;-61
2023/10/24 07:25:58;;;;;;;41.80;22.17;;;;;;;;;;5058253;28;20495;-61
2023/10/24 07:28:24;;;;;;;44.00;20.08;;;;;;;;;;5061547;28;20045;-61
2023/10/24 07:30:51;;;;;;;37.03;19.30;;;;;;;;;;5059769;28;20133;-61
2023/10/24 07:33:18;;;;;;;37.15;18.55;;;;;;;;;;5059105;28;20136;-61
2023/10/24 07:35:46;;;;;;;39.35;19.50;;;;;;;;;;5058960;28;20056;-61
2023/10/24 07:38:12;;;;;;;31.65;17.38;;;;;;;;;;5055606;28;20123;-61
2023/10/24 07:40:39;;;;;;;40.00;18.30;;;;;;;;;;5060641;28;20130;-61
2023/10/24 07:43:05;;;;;;;35.45;17.33;;;;;;;;;;5062423;28;20164;-61
2023/10/24 07:45:31;;;;;;;38.08;17.95;;;;;;;;;;5060447;28;20083;-61
2023/10/24 07:47:57;;;;;;;36.13;17.80;;;;;;;;;;5057200;28;20477;-61
2023/10/24 07:50:24;;;;;;;37.13;18.55;;;;;;;;;;5060506;28;20063;-61
2023/10/24 07:52:50;;;;;;;38.10;19.10;;;;;;;;;;5059904;28;20044;-61
2023/10/24 07:55:16;;;;;;;41.95;18.83;;;;;;;;;;5057922;28;20461;-61
2023/10/24 07:57:42;;;;;;;41.65;19.23;;;;;;;;;;5060769;28;20278;-61
2023/10/24 08:00:09;;;;;;;35.83;18.05;;;;;;;;;;5061139;28;20048;-61
2023/10/24 08:02:35;;;;;;;39.30;19.42;;;;;;;;;;5061368;28;20037;-61
2023/10/24 08:05:02;;;;;;;38.20;18.75;;;;;;;;;;5060006;28;20132;-61
2023/10/24 08:07:28;;;;;;;37.65;19.63;;;;;;;;;;5058009;28;20381;-61
2023/10/24 08:09:54;;;;;;;37.88;19.05;;;;;;;;;;5059669;28;20037;-61
2023/10/24 08:12:20;;;;;;;45.08;19.40;;;;;;;;;;5065291;28;20088;-61
2023/10/24 08:14:46;;;;;;;40.50;19.70;;;;;;;;;;5058849;28;20492;-61
2023/10/24 08:17:13;;;;;;;37.47;18.92;;;;;;;;;;5061644;28;20143;-61
2023/10/24 08:19:39;;;;;;;43.83;19.63;;;;;;;;;;5063089;28;20046;-61
2023/10/24 08:22:05;;;;;;;40.13;20.10;;;;;;;;;;5061361;28;20384;-61
2023/10/24 08:24:31;;;;;;;40.25;20.23;;;;;;;;;;5061577;28;20053;-61
2023/10/24 08:26:57;;;;;;;45.08;20.38;;;;;;;;;;5063686;28;20037;-61
2023/10/24 08:29:24;;;;;;;41.90;20.33;;;;;;;;;;5072709;28;20072;-61
2023/10/24 08:31:50;;;;;;;38.47;20.05;;;;;;;;;;5071427;28;20045;-61
2023/10/24 08:34:16;;;;;;;42.83;21.48;;;;;;;;;;5072109;28;20407;-61
2023/10/24 08:36:43;;;;;;;43.38;20.90;;;;;;;;;;5073438;28;20131;-61
2023/10/24 08:39:10;;;;;;;39.03;21.55;;;;;;;;;;5073214;28;20119;-61
2023/10/24 08:41:37;;;;;;;40.50;21.48;;;;;;;;;;5064293;28;20431;-61
2023/10/24 08:44:04;;;;;;;40.85;20.38;;;;;;;;;;5067124;28;20059;-61
2023/10/24 08:46:30;;;;;;;39.95;22.23;;;;;;;;;;5072084;28;20116;-61
2023/10/24 08:49:00;;;;;;;43.35;23.05;;;;;;;;;;5073254;28;20115;-61
2023/10/24 08:51:26;;;;;;;44.05;22.63;;;;;;;;;;5073107;28;20036;-61
2023/10/24 08:53:52;;;;;;;46.10;23.38;;;;;;;;;;5070927;28;20052;-61
2023/10/24 08:56:18;;;;;;;53.13;24.20;;;;;;;;;;5071523;28;20040;-61
2023/10/24 08:58:46;;;;;;;50.55;23.75;;;;;;;;;;5070466;28;20138;-67
2023/10/24 09:01:12;;;;;;;49.42;23.98;;;;;;;;;;5072570;28;20083;-61
2023/10/24 09:03:39;;;;;;;46.88;25.60;;;;;;;;;;5068675;28;20499;-61
2023/10/24 09:06:06;;;;;;;49.97;25.40;;;;;;;;;;5078338;28;20093;-61
2023/10/24 09:08:33;;;;;;;50.72;25.33;;;;;;;;;;5084664;28;20135;-61
2023/10/24 09:10:59;;;;;;;50.70;25.33;;;;;;;;;;5092454;28;20088;-61
2023/10/24 09:13:26;;;;;;;52.20;28.00;;;;;;;;;;5084333;28;20488;-61
2023/10/24 09:16:06;;;;;;;40.58;24.23;;;;;;;;;;5092254;28;20096;-61
2023/10/24 09:18:34;;;;;;;47.28;25.70;;;;;;;;;;5072696;28;20050;-61
2023/10/24 09:21:00;;;;;;;47.78;25.80;;;;;;;;;;5088708;28;20170;-61
2023/10/24 09:23:26;;;;;;;51.03;26.73;;;;;;;;;;5078215;28;20135;-61
2023/10/24 09:25:53;;;;;;;46.67;24.85;;;;;;;;;;5092935;28;20048;-61
2023/10/24 09:28:22;;;;;;;44.60;25.27;;;;;;;;;;5085671;28;20154;-61
2023/10/24 09:30:49;;;;;;;46.15;25.30;;;;;;;;;;5091852;28;20547;-61
2023/10/24 09:33:15;;;;;;;41.05;24.98;;;;;;;;;;5082259;28;20053;-61
2023/10/24 09:35:41;;;;;;;42.92;26.17;;;;;;;;;;5091617;28;20098;-61
2023/10/24 09:38:08;;;;;;;43.97;24.42;;;;;;;;;;5086849;28;20098;-61
2023/10/24 09:40:39;;;;;;;40.55;25.42;;;;;;;;;;5086538;28;20468;-61
2023/10/24 09:43:11;;;;;;;37.75;24.88;;;;;;;;;;5084909;28;20456;-61
2023/10/24 09:45:41;;;;;;;42.28;24.83;;;;;;;;;;5074117;28;20080;-61
2023/10/24 09:48:08;;;;;;;43.80;24.83;;;;;;;;;;5092432;28;20093;-61
2023/10/24 09:50:34;;;;;;;39.60;23.83;;;;;;;;;;5077106;28;20058;-61
2023/10/24 09:53:01;;;;;;;43.17;24.67;;;;;;;;;;5068281;28;20470;-61
2023/10/24 09:55:28;;;;;;;41.13;23.50;;;;;;;;;;5071725;28;20282;-61
2023/10/24 09:57:56;;;;;;;35.50;23.60;;;;;;;;;;5071873;28;20040;-61
2023/10/24 10:00:22;;;;;;;41.08;25.05;;;;;;;;;;5067552;28;20037;-61
2023/10/24 10:02:48;;;;;;;39.00;24.10;;;;;;;;;;5068773;28;20102;-61
2023/10/24 10:05:15;;;;;;;38.78;23.63;;;;;;;;;;5070455;28;20052;-61
2023/10/24 10:07:41;;;;;;;39.30;23.85;;;;;;;;;;5070976;28;20076;-61
2023/10/24 10:10:08;;;;;;;42.45;25.80;;;;;;;;;;5071735;28;20037;-61
2023/10/24 10:12:35;;;;;;;37.75;24.27;;;;;;;;;;5070360;28;20045;-61
2023/10/24 10:15:04;;;;;;;39.45;23.42;;;;;;;;;;5069945;28;20047;-61
2023/10/24 10:17:36;;;;;;;37.90;24.20;;;;;;;;;;5068645;28;20073;-61
2023/10/24 10:20:17;;;;;;;40.35;24.52;;;;;;;;;;5068934;28;20123;-61
2023/10/24 10:22:46;;;;;;;41.05;23.52;;;;;;;;;;5070075;28;20098;-61
2023/10/24 10:25:21;;;;;;;37.75;24.00;;;;;;;;;;5071019;28;20123;-61
2023/10/24 10:27:48;;;;;;;41.70;24.00;;;;;;;;;;5070686;28;20048;-61
2023/10/24 10:30:33;;;;;;;40.03;23.80;;;;;;;;;;5064650;28;20110;-61
2023/10/24 10:33:06;;;;;;;40.78;23.40;;;;;;;;;;5060214;28;20080;-61
2023/10/24 10:35:54;;;;;;;38.90;23.75;;;;;;;;;;5061142;28;20041;-61
2023/10/24 10:38:24;;;;;;;39.28;24.80;;;;;;;;;;5057087;28;20045;-61
2023/10/24 10:40:50;;;;;;;39.42;24.77;;;;;;;;;;5055430;28;20029;-61
2023/10/24 10:43:32;;;;;;;38.20;22.55;;;;;;;;;;5061689;28;20131;-61
2023/10/24 10:46:16;;;;;;;42.10;24.80;;;;;;;;;;5061784;28;20038;-61
2023/10/24 10:48:48;;;;;;;42.63;25.13;;;;;;;;;;5062283;28;20056;-61
2023/10/24 10:51:16;;;;;;;44.45;25.00;;;;;;;;;;5061555;28;20070;-61
2023/10/24 10:53:47;;;;;;;44.00;24.95;;;;;;;;;;5061372;28;20180;-61
2023/10/24 10:56:16;;;;;;;43.22;25.23;;;;;;;;;;5058168;28;20036;-61
2023/10/24 10:59:01;;;;;;;44.85;25.95;;;;;;;;;;5060062;28;20123;-61
2023/10/24 11:01:36;;;;;;;44.40;25.15;;;;;;;;;;5060675;28;20037;-61
2023/10/24 11:04:03;;;;;;;48.75;25.85;;;;;;;;;;5058328;28;20144;-61
2023/10/24 11:06:29;;;;;;;45.80;26.33;;;;;;;;;;5060813;28;20128;-61
2023/10/24 11:09:07;;;;;;;47.03;26.67;;;;;;;;;;5060797;28;20044;-61
2023/10/24 11:11:33;;;;;;;46.72;27.38;;;;;;;;;;5058359;28;20060;-61
2023/10/24 11:14:15;;;;;;;48.95;26.80;;;;;;;;;;5060962;28;20044;-61
2023/10/24 11:16:42;;;;;;;43.40;26.25;;;;;;;;;;5059750;28;20062;-61
2023/10/24 11:19:10;;;;;;;41.13;24.95;;;;;;;;;;5057813;28;20050;-61
2023/10/24 11:21:36;;;;;;;42.97;26.98;;;;;;;;;;5058223;28;20040;-61
2023/10/24 11:24:02;;;;;;;38.78;24.50;;;;;;;;;;5059694;28;20067;-61
2023/10/24 11:26:28;;;;;;;36.10;24.50;;;;;;;;;;5060140;28;20041;-61
2023/10/24 11:28:55;;;;;;;42.60;26.27;;;;;;;;;;5060833;28;20052;-62
2023/10/24 11:31:22;;;;;;;41.47;25.45;;;;;;;;;;5060777;28;20440;-61
2023/10/24 11:33:48;;;;;;;41.08;25.38;;;;;;;;;;5059665;28;20429;-61
2023/10/24 11:36:15;;;;;;;35.88;24.63;;;;;;;;;;5062804;28;20404;-61
2023/10/24 11:38:41;;;;;;;39.40;25.92;;;;;;;;;;5060857;28;20052;-61
2023/10/24 11:41:08;;;;;;;36.63;25.23;;;;;;;;;;5061796;28;20368;-61
2023/10/24 11:43:34;;;;;;;35.85;24.88;;;;;;;;;;5059780;28;20071;-61
2023/10/24 11:46:00;;;;;;;34.97;24.70;;;;;;;;;;5064479;28;20543;-61
2023/10/24 11:48:26;;;;;;;36.83;25.33;;;;;;;;;;5066431;28;20037;-61
2023/10/24 11:50:52;;;;;;;36.33;25.10;;;;;;;;;;5061073;28;20139;-61
2023/10/24 11:53:22;;;;;;;38.53;25.63;;;;;;;;;;5062438;28;20391;-61
2023/10/24 11:55:49;;;;;;;37.97;25.25;;;;;;;;;;5066351;28;20047;-61
2023/10/24 11:58:15;;;;;;;38.00;25.13;;;;;;;;;;5065677;28;20131;-62
2023/10/24 12:00:43;;;;;;;36.78;26.00;;;;;;;;;;5073373;28;20102;-61
2023/10/24 12:03:09;;;;;;;35.03;25.55;;;;;;;;;;5067139;28;20124;-61
2023/10/24 12:05:36;;;;;;;33.00;24.80;;;;;;;;;;5072003;28;20077;-61
2023/10/24 12:08:03;;;;;;;35.53;24.17;;;;;;;;;;5070728;28;20511;-60
2023/10/24 12:10:30;;;;;;;34.22;24.25;;;;;;;;;;5070985;28;20048;-61
2023/10/24 12:13:00;;;;;;;32.25;23.95;;;;;;;;;;5071688;28;20503;-61
2023/10/24 12:15:27;;;;;;;33.65;23.40;;;;;;;;;;5072905;28;20487;-61
2023/10/24 12:17:53;;;;;;;29.85;22.20;;;;;;;;;;5073921;28;20454;-61
2023/10/24 12:20:23;;;;;;;33.72;22.60;;;;;;;;;;5072957;28;20040;-61
2023/10/24 12:22:50;;;;;;;32.35;22.60;;;;;;;;;;5065389;28;20189;-61
2023/10/24 12:25:17;;;;;;;28.95;21.67;;;;;;;;;;5069644;28;20498;-61
2023/10/24 12:27:44;;;;;;;28.23;21.83;;;;;;;;;;5072537;28;20094;-61
2023/10/24 12:30:10;;;;;;;28.92;21.65;;;;;;;;;;5072471;28;20053;-61
2023/10/24 12:32:37;;;;;;;28.27;21.77;;;;;;;;;;5066177;28;20111;-62
2023/10/24 12:35:06;;;;;;;26.60;20.50;;;;;;;;;;5070442;28;20046;-61
2023/10/24 12:37:33;;;;;;;26.50;18.80;;;;;;;;;;5072233;28;20036;-61
2023/10/24 12:39:59;;;;;;;26.52;20.60;;;;;;;;;;5072419;28;20041;-61
2023/10/24 12:42:26;;;;;;;25.05;19.80;;;;;;;;;;5072943;28;20041;-61
2023/10/24 12:44:52;;;;;;;35.20;23.50;;;;;;;;;;5072616;28;20128;-61
2023/10/24 12:47:20;;;;;;;27.00;21.30;;;;;;;;;;5072432;28;20507;-61
2023/10/24 12:49:47;;;;;;;24.67;19.15;;;;;;;;;;5072524;28;20059;-61
2023/10/24 12:52:13;;;;;;;26.98;19.00;;;;;;;;;;5073273;28;20111;-61
2023/10/24 12:54:39;;;;;;;27.73;18.50;;;;;;;;;;5069915;28;20048;-60
2023/10/24 12:57:05;;;;;;;26.38;18.42;;;;;;;;;;5071939;28;20090;-61
2023/10/24 12:59:31;;;;;;;26.13;18.67;;;;;;;;;;5072373;28;20036;-61
2023/10/24 13:01:57;;;;;;;21.85;16.92;;;;;;;;;;5068259;28;20037;-61
2023/10/24 13:04:24;;;;;;;21.02;16.73;;;;;;;;;;5065355;28;20131;-61
2023/10/24 13:06:54;;;;;;;24.13;17.95;;;;;;;;;;5071995;28;20503;-61
2023/10/24 13:09:20;;;;;;;23.90;18.15;;;;;;;;;;5072102;28;20048;-61
2023/10/24 13:11:47;;;;;;;26.27;18.98;;;;;;;;;;5072760;28;20047;-61
2023/10/24 13:14:14;;;;;;;29.45;19.40;;;;;;;;;;5073034;28;20400;-61
2023/10/24 13:16:40;;;;;;;26.02;18.88;;;;;;;;;;5069402;28;20049;-61
2023/10/24 13:19:07;;;;;;;30.50;20.50;;;;;;;;;;5071293;28;20447;-60
2023/10/24 13:21:33;;;;;;;28.98;19.92;;;;;;;;;;5069044;28;20051;-61
2023/10/24 13:23:59;;;;;;;32.00;21.23;;;;;;;;;;5066303;28;20518;-61
2023/10/24 13:26:25;;;;;;;31.25;21.83;;;;;;;;;;5070558;28;20435;-61
2023/10/24 13:28:52;;;;;;;35.17;23.70;;;;;;;;;;5068320;28;20395;-61
2023/10/24 13:31:18;;;;;;;38.45;25.13;;;;;;;;;;5067718;28;20579;-61
2023/10/24 13:33:44;;;;;;;33.58;24.20;;;;;;;;;;5069137;28;20045;-61
2023/10/24 13:36:14;;;;;;;42.53;26.17;;;;;;;;;;5063073;28;20047;-61
2023/10/24 13:38:40;;;;;;;35.55;25.17;;;;;;;;;;5071603;28;20044;-61
2023/10/24 13:41:06;;;;;;;40.05;25.08;;;;;;;;;;5072459;28;20060;-61
2023/10/24 13:43:33;;;;;;;33.03;23.42;;;;;;;;;;5071083;28;20135;-61
2023/10/24 13:45:59;;;;;;;41.17;25.92;;;;;;;;;;5068474;28;20125;-60
2023/10/24 13:48:25;;;;;;;37.13;26.83;;;;;;;;;;5070504;28;20076;-61
2023/10/24 13:50:52;;;;;;;38.53;25.80;;;;;;;;;;5071212;28;20476;-61
2023/10/24 13:53:18;;;;;;;38.63;25.83;;;;;;;;;;5071870;28;20071;-61
2023/10/24 13:55:44;;;;;;;43.72;27.02;;;;;;;;;;5070219;28;20499;-61
2023/10/24 13:58:11;;;;;;;39.55;27.33;;;;;;;;;;5067922;28;20045;-61
2023/10/24 14:00:37;;;;;;;39.92;27.55;;;;;;;;;;5069550;28;20059;-61
2023/10/24 14:03:05;;;;;;;39.88;26.83;;;;;;;;;;5069366;28;20036;-61
2023/10/24 14:05:31;;;;;;;41.13;27.50;;;;;;;;;;5069211;28;20052;-61
2023/10/24 14:07:57;;;;;;;39.80;26.67;;;;;;;;;;5070414;28;20037;-61
2023/10/24 14:10:24;;;;;;;41.00;27.25;;;;;;;;;;5068838;28;20501;-61
2023/10/24 14:12:50;;;;;;;39.50;26.52;;;;;;;;;;5067513;28;20452;-61
2023/10/24 14:15:16;;;;;;;35.80;25.73;;;;;;;;;;5070248;28;20049;-61